sensor_id;sensor_type;location;lat;lon;timestamp;pressure;altitude;pressure_sealevel;temperature;humidity
65614;BME280;52283;49.292;10.572;2023-04-08T00:00:53;96638.34;;;4.84;100.00
65614;BME280;52283;49.292;10.572;2023-04-08T00:03:21;96630.63;;;4.88;100.00
65614;BME280;52283;49.292;10.572;2023-04-08T00:05:47;96632.31;;;4.95;100.00
65614;BME280;52283;49.292;10.572;2023-04-08T00:08:15;96632.81;;;5.03;100.00
65614;BME280;52283;49.292;10.572;2023-04-08T00:10:41;96633.88;;;4.87;100.00
65614;BME280;52283;49.292;10.572;2023-04-08T00:13:08;96628.94;;;4.91;100.00
65614;BME280;52283;49.292;10.572;2023-04-08T00:15:35;96634.03;;;4.93;100.00
65614;BME280;52283;49.292;10.572;2023-04-08T00:18:01;96635.25;;;4.82;100.00
65614;BME280;52283;49.292;10.572;2023-04-08T00:20:28;96640.19;;;4.87;100.00
65614;BME280;52283;49.292;10.572;2023-04-08T00:22:54;96642.94;;;4.87;100.00
65614;BME280;52283;49.292;10.572;2023-04-08T00:25:22;96644.03;;;4.90;100.00
65614;BME280;52283;49.292;10.572;2023-04-08T00:27:49;96642.03;;;4.90;100.00
65614;BME280;52283;49.292;10.572;2023-04-08T00:30:16;96643.41;;;4.95;100.00
65614;BME280;52283;49.292;10.572;2023-04-08T00:32:42;96650.78;;;4.98;100.00
65614;BME280;52283;49.292;10.572;2023-04-08T00:35:09;96652.03;;;5.06;100.00
65614;BME280;52283;49.292;10.572;2023-04-08T00:37:37;96651.72;;;4.95;100.00
65614;BME280;52283;49.292;10.572;2023-04-08T00:40:04;96652.50;;;4.86;100.00
65614;BME280;52283;49.292;10.572;2023-04-08T00:42:32;96651.56;;;4.89;100.00
65614;BME280;52283;49.292;10.572;2023-04-08T00:44:58;96650.19;;;4.85;100.00
65614;BME280;52283;49.292;10.572;2023-04-08T00:47:25;96658.00;;;4.77;100.00
65614;BME280;52283;49.292;10.572;2023-04-08T00:49:51;96648.16;;;4.67;100.00
65614;BME280;52283;49.292;10.572;2023-04-08T00:52:18;96658.44;;;4.57;100.00
65614;BME280;52283;49.292;10.572;2023-04-08T00:54:44;96657.81;;;4.44;100.00
65614;BME280;52283;49.292;10.572;2023-04-08T00:57:11;96659.19;;;4.40;100.00
65614;BME280;52283;49.292;10.572;2023-04-08T00:59:39;96648.44;;;4.42;100.00
65614;BME280;52283;49.292;10.572;2023-04-08T01:02:12;96646.75;;;4.44;100.00
65614;BME280;52283;49.292;10.572;2023-04-08T01:04:49;96648.28;;;4.45;100.00
65614;BME280;52283;49.292;10.572;2023-04-08T01:07:21;96647.66;;;4.50;100.00
65614;BME280;52283;49.292;10.572;2023-04-08T01:09:53;96647.50;;;4.45;100.00
65614;BME280;52283;49.292;10.572;2023-04-08T01:12:24;96647.81;;;4.47;100.00
65614;BME280;52283;49.292;10.572;2023-04-08T01:14:57;96645.81;;;4.38;100.00
65614;BME280;52283;49.292;10.572;2023-04-08T01:17:25;96648.84;;;4.31;100.00
65614;BME280;52283;49.292;10.572;2023-04-08T01:19:53;96647.63;;;4.32;100.00
65614;BME280;52283;49.292;10.572;2023-04-08T01:22:25;96648.69;;;4.35;100.00
65614;BME280;52283;49.292;10.572;2023-04-08T01:24:53;96649.91;;;4.24;100.00
65614;BME280;52283;49.292;10.572;2023-04-08T01:27:25;96653.16;;;4.23;100.00
65614;BME280;52283;49.292;10.572;2023-04-08T01:29:53;96649.63;;;4.32;100.00
65614;BME280;52283;49.292;10.572;2023-04-08T01:32:20;96649.91;;;4.24;100.00
65614;BME280;52283;49.292;10.572;2023-04-08T01:34:47;96640.66;;;4.09;100.00
65614;BME280;52283;49.292;10.572;2023-04-08T01:37:15;96644.69;;;4.17;100.00
65614;BME280;52283;49.292;10.572;2023-04-08T01:39:42;96644.78;;;4.05;100.00
65614;BME280;52283;49.292;10.572;2023-04-08T01:42:10;96639.53;;;3.97;100.00
65614;BME280;52283;49.292;10.572;2023-04-08T01:44:39;96639.84;;;4.00;100.00
65614;BME280;52283;49.292;10.572;2023-04-08T01:47:07;96647.84;;;3.97;100.00
65614;BME280;52283;49.292;10.572;2023-04-08T01:49:35;96648.59;;;3.98;100.00
65614;BME280;52283;49.292;10.572;2023-04-08T01:52:03;96635.81;;;3.91;100.00
65614;BME280;52283;49.292;10.572;2023-04-08T01:54:30;96640.13;;;3.92;100.00
65614;BME280;52283;49.292;10.572;2023-04-08T01:56:57;96635.41;;;4.02;100.00
65614;BME280;52283;49.292;10.572;2023-04-08T01:59:28;96628.34;;;4.10;100.00
65614;BME280;52283;49.292;10.572;2023-04-08T02:01:58;96632.50;;;4.06;100.00
65614;BME280;52283;49.292;10.572;2023-04-08T02:04:25;96632.34;;;4.09;100.00
65614;BME280;52283;49.292;10.572;2023-04-08T02:06:52;96641.94;;;4.26;100.00
65614;BME280;52283;49.292;10.572;2023-04-08T02:09:18;96646.72;;;4.35;100.00
65614;BME280;52283;49.292;10.572;2023-04-08T02:11:45;96647.31;;;4.30;100.00
65614;BME280;52283;49.292;10.572;2023-04-08T02:14:11;96655.56;;;4.12;100.00
65614;BME280;52283;49.292;10.572;2023-04-08T02:16:40;96654.47;;;4.09;100.00
65614;BME280;52283;49.292;10.572;2023-04-08T02:19:13;96642.31;;;3.97;100.00
65614;BME280;52283;49.292;10.572;2023-04-08T02:21:43;96650.47;;;3.70;100.00
65614;BME280;52283;49.292;10.572;2023-04-08T02:24:12;96648.13;;;3.59;100.00
65614;BME280;52283;49.292;10.572;2023-04-08T02:26:42;96646.50;;;3.49;100.00
65614;BME280;52283;49.292;10.572;2023-04-08T02:29:11;96645.50;;;3.56;100.00
65614;BME280;52283;49.292;10.572;2023-04-08T02:31:40;96650.19;;;3.46;100.00
65614;BME280;52283;49.292;10.572;2023-04-08T02:34:07;96639.63;;;3.54;100.00
65614;BME280;52283;49.292;10.572;2023-04-08T02:36:36;96647.06;;;3.66;100.00
65614;BME280;52283;49.292;10.572;2023-04-08T02:39:05;96650.75;;;3.63;100.00
65614;BME280;52283;49.292;10.572;2023-04-08T02:41:31;96654.31;;;3.73;100.00
65614;BME280;52283;49.292;10.572;2023-04-08T02:43:58;96658.13;;;3.66;100.00
65614;BME280;52283;49.292;10.572;2023-04-08T02:46:24;96656.91;;;3.67;100.00
65614;BME280;52283;49.292;10.572;2023-04-08T02:48:51;96649.50;;;3.64;100.00
65614;BME280;52283;49.292;10.572;2023-04-08T02:51:17;96653.50;;;3.63;100.00
65614;BME280;52283;49.292;10.572;2023-04-08T02:53:45;96652.47;;;3.70;100.00
65614;BME280;52283;49.292;10.572;2023-04-08T02:56:12;96660.13;;;3.65;100.00
65614;BME280;52283;49.292;10.572;2023-04-08T02:58:38;96663.72;;;3.75;100.00
65614;BME280;52283;49.292;10.572;2023-04-08T03:01:07;96657.63;;;3.58;100.00
65614;BME280;52283;49.292;10.572;2023-04-08T03:03:34;96660.56;;;3.64;100.00
65614;BME280;52283;49.292;10.572;2023-04-08T03:06:00;96657.84;;;3.73;100.00
65614;BME280;52283;49.292;10.572;2023-04-08T03:08:27;96658.44;;;3.68;100.00
65614;BME280;52283;49.292;10.572;2023-04-08T03:10:55;96654.72;;;3.62;100.00
65614;BME280;52283;49.292;10.572;2023-04-08T03:13:21;96659.50;;;3.61;100.00
65614;BME280;52283;49.292;10.572;2023-04-08T03:15:47;96653.19;;;3.61;100.00
65614;BME280;52283;49.292;10.572;2023-04-08T03:18:14;96664.69;;;3.59;100.00
65614;BME280;52283;49.292;10.572;2023-04-08T03:20:40;96660.06;;;3.56;100.00
65614;BME280;52283;49.292;10.572;2023-04-08T03:23:07;96667.25;;;3.54;100.00
65614;BME280;52283;49.292;10.572;2023-04-08T03:25:33;96660.84;;;3.57;100.00
65614;BME280;52283;49.292;10.572;2023-04-08T03:28:01;96660.19;;;3.53;100.00
65614;BME280;52283;49.292;10.572;2023-04-08T03:30:28;96659.81;;;3.63;100.00
65614;BME280;52283;49.292;10.572;2023-04-08T03:32:54;96660.28;;;3.71;100.00
65614;BME280;52283;49.292;10.572;2023-04-08T03:35:21;96662.88;;;3.96;100.00
65614;BME280;52283;49.292;10.572;2023-04-08T03:37:47;96668.50;;;3.84;100.00
65614;BME280;52283;49.292;10.572;2023-04-08T03:40:14;96665.56;;;3.78;100.00
65614;BME280;52283;49.292;10.572;2023-04-08T03:42:40;96670.53;;;3.92;100.00
65614;BME280;52283;49.292;10.572;2023-04-08T03:45:08;96672.66;;;3.88;100.00
65614;BME280;52283;49.292;10.572;2023-04-08T03:47:35;96669.63;;;3.95;100.00
65614;BME280;52283;49.292;10.572;2023-04-08T03:50:01;96672.06;;;3.93;100.00
65614;BME280;52283;49.292;10.572;2023-04-08T03:52:28;96677.88;;;3.86;100.00
65614;BME280;52283;49.292;10.572;2023-04-08T03:54:55;96671.72;;;3.82;100.00
65614;BME280;52283;49.292;10.572;2023-04-08T03:57:21;96678.19;;;3.88;100.00
65614;BME280;52283;49.292;10.572;2023-04-08T03:59:48;96671.91;;;3.88;100.00
65614;BME280;52283;49.292;10.572;2023-04-08T04:02:16;96677.84;;;3.77;100.00
65614;BME280;52283;49.292;10.572;2023-04-08T04:04:42;96665.81;;;3.71;100.00
65614;BME280;52283;49.292;10.572;2023-04-08T04:07:08;96672.00;;;3.75;100.00
65614;BME280;52283;49.292;10.572;2023-04-08T04:09:35;96662.88;;;3.65;100.00
65614;BME280;52283;49.292;10.572;2023-04-08T04:12:02;96667.63;;;3.65;100.00
65614;BME280;52283;49.292;10.572;2023-04-08T04:14:28;96674.25;;;3.67;100.00
65614;BME280;52283;49.292;10.572;2023-04-08T04:16:55;96677.53;;;3.75;100.00
65614;BME280;52283;49.292;10.572;2023-04-08T04:19:22;96677.00;;;3.67;100.00
65614;BME280;52283;49.292;10.572;2023-04-08T04:21:49;96685.91;;;3.62;100.00
65614;BME280;52283;49.292;10.572;2023-04-08T04:24:15;96680.06;;;3.60;100.00
65614;BME280;52283;49.292;10.572;2023-04-08T04:26:42;96688.81;;;3.59;100.00
65614;BME280;52283;49.292;10.572;2023-04-08T04:29:08;96684.94;;;3.56;100.00
65614;BME280;52283;49.292;10.572;2023-04-08T04:31:34;96690.06;;;3.67;100.00
65614;BME280;52283;49.292;10.572;2023-04-08T04:34:01;96683.63;;;3.70;100.00
65614;BME280;52283;49.292;10.572;2023-04-08T04:36:29;96696.59;;;3.82;100.00
65614;BME280;52283;49.292;10.572;2023-04-08T04:38:56;96701.06;;;3.80;100.00
65614;BME280;52283;49.292;10.572;2023-04-08T04:41:22;96701.97;;;3.77;100.00
65614;BME280;52283;49.292;10.572;2023-04-08T04:43:49;96707.72;;;3.70;100.00
65614;BME280;52283;49.292;10.572;2023-04-08T04:46:15;96703.13;;;3.66;100.00
65614;BME280;52283;49.292;10.572;2023-04-08T04:48:42;96706.75;;;3.85;100.00
65614;BME280;52283;49.292;10.572;2023-04-08T04:51:08;96703.84;;;3.89;100.00
65614;BME280;52283;49.292;10.572;2023-04-08T04:53:37;96701.69;;;3.84;100.00
65614;BME280;52283;49.292;10.572;2023-04-08T04:56:03;96708.72;;;3.76;100.00
65614;BME280;52283;49.292;10.572;2023-04-08T04:58:30;96716.13;;;3.88;100.00
65614;BME280;52283;49.292;10.572;2023-04-08T05:00:56;96715.75;;;3.98;100.00
65614;BME280;52283;49.292;10.572;2023-04-08T05:03:23;96716.84;;;4.10;100.00
65614;BME280;52283;49.292;10.572;2023-04-08T05:05:50;96727.78;;;4.14;100.00
65614;BME280;52283;49.292;10.572;2023-04-08T05:08:17;96723.94;;;4.11;100.00
65614;BME280;52283;49.292;10.572;2023-04-08T05:10:45;96724.25;;;4.13;100.00
65614;BME280;52283;49.292;10.572;2023-04-08T05:13:14;96728.03;;;3.97;100.00
65614;BME280;52283;49.292;10.572;2023-04-08T05:15:41;96726.72;;;3.89;100.00
65614;BME280;52283;49.292;10.572;2023-04-08T05:18:07;96736.41;;;3.85;100.00
65614;BME280;52283;49.292;10.572;2023-04-08T05:20:33;96731.41;;;4.02;100.00
65614;BME280;52283;49.292;10.572;2023-04-08T05:23:00;96730.97;;;4.03;100.00
65614;BME280;52283;49.292;10.572;2023-04-08T05:25:26;96734.19;;;4.02;100.00
65614;BME280;52283;49.292;10.572;2023-04-08T05:27:54;96742.38;;;3.83;100.00
65614;BME280;52283;49.292;10.572;2023-04-08T05:30:21;96745.84;;;3.75;100.00
65614;BME280;52283;49.292;10.572;2023-04-08T05:32:48;96741.66;;;3.92;100.00
65614;BME280;52283;49.292;10.572;2023-04-08T05:35:15;96752.22;;;3.84;100.00
65614;BME280;52283;49.292;10.572;2023-04-08T05:37:41;96756.06;;;3.87;100.00
65614;BME280;52283;49.292;10.572;2023-04-08T05:40:08;96746.72;;;3.93;100.00
65614;BME280;52283;49.292;10.572;2023-04-08T05:42:35;96752.97;;;3.85;100.00
65614;BME280;52283;49.292;10.572;2023-04-08T05:45:04;96762.94;;;4.04;100.00
65614;BME280;52283;49.292;10.572;2023-04-08T05:47:31;96755.44;;;4.14;100.00
65614;BME280;52283;49.292;10.572;2023-04-08T05:49:58;96754.72;;;4.22;100.00
65614;BME280;52283;49.292;10.572;2023-04-08T05:52:24;96756.94;;;4.06;100.00
65614;BME280;52283;49.292;10.572;2023-04-08T05:54:51;96763.19;;;3.97;100.00
65614;BME280;52283;49.292;10.572;2023-04-08T05:57:18;96756.31;;;4.02;100.00
65614;BME280;52283;49.292;10.572;2023-04-08T05:59:44;96755.84;;;4.03;100.00
65614;BME280;52283;49.292;10.572;2023-04-08T06:02:12;96770.38;;;3.94;100.00
65614;BME280;52283;49.292;10.572;2023-04-08T06:04:38;96770.44;;;4.04;100.00
65614;BME280;52283;49.292;10.572;2023-04-08T06:07:05;96772.16;;;4.10;100.00
65614;BME280;52283;49.292;10.572;2023-04-08T06:09:34;96775.84;;;4.07;100.00
65614;BME280;52283;49.292;10.572;2023-04-08T06:12:01;96781.00;;;4.18;100.00
65614;BME280;52283;49.292;10.572;2023-04-08T06:14:27;96787.00;;;4.25;100.00
65614;BME280;52283;49.292;10.572;2023-04-08T06:16:53;96787.50;;;4.33;100.00
65614;BME280;52283;49.292;10.572;2023-04-08T06:19:22;96786.56;;;4.27;100.00
65614;BME280;52283;49.292;10.572;2023-04-08T06:21:49;96789.63;;;4.29;100.00
65614;BME280;52283;49.292;10.572;2023-04-08T06:24:16;96792.41;;;4.29;100.00
65614;BME280;52283;49.292;10.572;2023-04-08T06:26:42;96783.78;;;4.27;100.00
65614;BME280;52283;49.292;10.572;2023-04-08T06:29:08;96783.97;;;4.33;100.00
65614;BME280;52283;49.292;10.572;2023-04-08T06:31:35;96787.03;;;4.35;100.00
65614;BME280;52283;49.292;10.572;2023-04-08T06:34:01;96782.94;;;4.39;100.00
65614;BME280;52283;49.292;10.572;2023-04-08T06:36:29;96781.88;;;4.46;100.00
65614;BME280;52283;49.292;10.572;2023-04-08T06:38:55;96783.56;;;4.43;100.00
65614;BME280;52283;49.292;10.572;2023-04-08T06:41:22;96787.59;;;4.51;100.00
65614;BME280;52283;49.292;10.572;2023-04-08T06:43:48;96779.31;;;4.61;100.00
65614;BME280;52283;49.292;10.572;2023-04-08T06:46:15;96792.41;;;4.69;100.00
65614;BME280;52283;49.292;10.572;2023-04-08T06:48:41;96794.78;;;4.80;100.00
65614;BME280;52283;49.292;10.572;2023-04-08T06:51:08;96785.72;;;4.98;100.00
65614;BME280;52283;49.292;10.572;2023-04-08T06:53:37;96789.59;;;5.00;100.00
65614;BME280;52283;49.292;10.572;2023-04-08T06:56:03;96789.59;;;5.09;100.00
65614;BME280;52283;49.292;10.572;2023-04-08T06:58:30;96791.31;;;5.34;100.00
65614;BME280;52283;49.292;10.572;2023-04-08T07:00:58;96798.72;;;5.37;100.00
65614;BME280;52283;49.292;10.572;2023-04-08T07:03:25;96809.34;;;5.39;100.00
65614;BME280;52283;49.292;10.572;2023-04-08T07:05:51;96807.66;;;5.32;100.00
65614;BME280;52283;49.292;10.572;2023-04-08T07:08:18;96810.09;;;5.39;100.00
65614;BME280;52283;49.292;10.572;2023-04-08T07:10:46;96806.28;;;5.73;100.00
65614;BME280;52283;49.292;10.572;2023-04-08T07:13:13;96808.59;;;5.75;100.00
65614;BME280;52283;49.292;10.572;2023-04-08T07:15:39;96807.84;;;5.93;100.00
65614;BME280;52283;49.292;10.572;2023-04-08T07:18:06;96814.44;;;5.86;100.00
65614;BME280;52283;49.292;10.572;2023-04-08T07:20:32;96816.28;;;5.80;100.00
65614;BME280;52283;49.292;10.572;2023-04-08T07:23:02;96809.53;;;5.90;100.00
65614;BME280;52283;49.292;10.572;2023-04-08T07:25:28;96809.53;;;5.90;100.00
65614;BME280;52283;49.292;10.572;2023-04-08T07:27:56;96818.91;;;5.74;100.00
65614;BME280;52283;49.292;10.572;2023-04-08T07:30:23;96816.16;;;5.84;100.00
65614;BME280;52283;49.292;10.572;2023-04-08T07:32:49;96816.47;;;5.67;100.00
65614;BME280;52283;49.292;10.572;2023-04-08T07:35:16;96825.69;;;5.46;100.00
65614;BME280;52283;49.292;10.572;2023-04-08T07:37:48;96836.16;;;5.42;100.00
65614;BME280;52283;49.292;10.572;2023-04-08T07:40:14;96829.66;;;5.36;100.00
65614;BME280;52283;49.292;10.572;2023-04-08T07:42:41;96838.75;;;5.36;100.00
65614;BME280;52283;49.292;10.572;2023-04-08T07:45:09;96853.22;;;5.22;100.00
65614;BME280;52283;49.292;10.572;2023-04-08T07:47:36;96855.78;;;5.07;100.00
65614;BME280;52283;49.292;10.572;2023-04-08T07:50:03;96866.53;;;5.05;100.00
65614;BME280;52283;49.292;10.572;2023-04-08T07:52:30;96857.56;;;4.92;100.00
65614;BME280;52283;49.292;10.572;2023-04-08T07:54:56;96859.34;;;5.17;100.00
65614;BME280;52283;49.292;10.572;2023-04-08T07:57:23;96863.63;;;5.09;100.00
65614;BME280;52283;49.292;10.572;2023-04-08T07:59:49;96857.47;;;5.05;100.00
65614;BME280;52283;49.292;10.572;2023-04-08T08:02:17;96876.88;;;5.14;100.00
65614;BME280;52283;49.292;10.572;2023-04-08T08:04:43;96868.56;;;5.14;100.00
65614;BME280;52283;49.292;10.572;2023-04-08T08:07:10;96872.81;;;4.97;100.00
65614;BME280;52283;49.292;10.572;2023-04-08T08:09:37;96884.09;;;5.02;100.00
65614;BME280;52283;49.292;10.572;2023-04-08T08:12:03;96886.03;;;4.93;100.00
65614;BME280;52283;49.292;10.572;2023-04-08T08:14:29;96879.94;;;5.07;100.00
65614;BME280;52283;49.292;10.572;2023-04-08T08:16:56;96887.84;;;5.27;100.00
65614;BME280;52283;49.292;10.572;2023-04-08T08:19:24;96885.47;;;5.07;100.00
65614;BME280;52283;49.292;10.572;2023-04-08T08:21:50;96891.06;;;4.54;100.00
65614;BME280;52283;49.292;10.572;2023-04-08T08:24:17;96894.84;;;4.38;100.00
65614;BME280;52283;49.292;10.572;2023-04-08T08:26:43;96885.34;;;4.48;100.00
65614;BME280;52283;49.292;10.572;2023-04-08T08:29:11;96889.34;;;4.47;100.00
65614;BME280;52283;49.292;10.572;2023-04-08T08:31:37;96889.94;;;4.42;100.00
65614;BME280;52283;49.292;10.572;2023-04-08T08:34:04;96892.03;;;4.60;100.00
65614;BME280;52283;49.292;10.572;2023-04-08T08:36:32;96898.28;;;4.51;100.00
65614;BME280;52283;49.292;10.572;2023-04-08T08:38:58;96898.81;;;4.59;100.00
65614;BME280;52283;49.292;10.572;2023-04-08T08:41:25;96895.47;;;4.73;100.00
65614;BME280;52283;49.292;10.572;2023-04-08T08:43:52;96897.16;;;4.71;100.00
65614;BME280;52283;49.292;10.572;2023-04-08T08:46:20;96900.78;;;4.89;100.00
65614;BME280;52283;49.292;10.572;2023-04-08T08:48:46;96902.88;;;4.76;100.00
65614;BME280;52283;49.292;10.572;2023-04-08T08:51:13;96909.50;;;4.79;100.00
65614;BME280;52283;49.292;10.572;2023-04-08T08:53:40;96908.84;;;4.66;100.00
65614;BME280;52283;49.292;10.572;2023-04-08T08:56:09;96911.81;;;4.49;100.00
65614;BME280;52283;49.292;10.572;2023-04-08T08:58:36;96908.50;;;4.64;100.00
65614;BME280;52283;49.292;10.572;2023-04-08T09:01:28;96916.31;;;4.87;100.00
65614;BME280;52283;49.292;10.572;2023-04-08T09:04:06;96918.75;;;4.54;100.00
65614;BME280;52283;49.292;10.572;2023-04-08T09:06:33;96919.34;;;4.49;100.00
65614;BME280;52283;49.292;10.572;2023-04-08T09:09:00;96914.88;;;4.51;100.00
65614;BME280;52283;49.292;10.572;2023-04-08T09:11:30;96914.38;;;4.66;100.00
65614;BME280;52283;49.292;10.572;2023-04-08T09:13:56;96920.56;;;4.79;100.00
65614;BME280;52283;49.292;10.572;2023-04-08T09:16:23;96919.81;;;4.78;100.00
65614;BME280;52283;49.292;10.572;2023-04-08T09:18:50;96922.22;;;4.98;100.00
65614;BME280;52283;49.292;10.572;2023-04-08T09:21:17;96920.94;;;4.90;100.00
65614;BME280;52283;49.292;10.572;2023-04-08T09:23:48;96928.44;;;4.80;100.00
65614;BME280;52283;49.292;10.572;2023-04-08T09:26:17;96927.03;;;4.76;100.00
65614;BME280;52283;49.292;10.572;2023-04-08T09:28:57;96931.53;;;4.82;100.00
65614;BME280;52283;49.292;10.572;2023-04-08T09:31:24;96931.50;;;4.51;100.00
65614;BME280;52283;49.292;10.572;2023-04-08T09:33:52;96934.09;;;4.77;100.00
65614;BME280;52283;49.292;10.572;2023-04-08T09:36:19;96930.78;;;4.91;100.00
65614;BME280;52283;49.292;10.572;2023-04-08T09:38:46;96928.03;;;4.60;100.00
65614;BME280;52283;49.292;10.572;2023-04-08T09:41:14;96927.38;;;4.56;100.00
65614;BME280;52283;49.292;10.572;2023-04-08T09:43:43;96930.03;;;4.90;100.00
65614;BME280;52283;49.292;10.572;2023-04-08T09:46:15;96931.16;;;5.02;100.00
65614;BME280;52283;49.292;10.572;2023-04-08T09:48:49;96929.13;;;5.34;100.00
65614;BME280;52283;49.292;10.572;2023-04-08T09:51:21;96929.63;;;5.41;100.00
65614;BME280;52283;49.292;10.572;2023-04-08T09:53:55;96927.44;;;5.36;100.00
65614;BME280;52283;49.292;10.572;2023-04-08T09:56:26;96930.41;;;5.42;100.00
65614;BME280;52283;49.292;10.572;2023-04-08T09:58:58;96930.81;;;5.40;100.00
65614;BME280;52283;49.292;10.572;2023-04-08T10:01:37;96933.69;;;5.68;100.00
65614;BME280;52283;49.292;10.572;2023-04-08T10:04:05;96939.19;;;5.59;100.00
65614;BME280;52283;49.292;10.572;2023-04-08T10:06:33;96938.63;;;5.73;100.00
65614;BME280;52283;49.292;10.572;2023-04-08T10:09:02;96927.19;;;5.62;100.00
65614;BME280;52283;49.292;10.572;2023-04-08T10:11:29;96940.63;;;5.63;100.00
65614;BME280;52283;49.292;10.572;2023-04-08T10:13:57;96935.06;;;5.72;100.00
65614;BME280;52283;49.292;10.572;2023-04-08T10:16:24;96939.75;;;5.94;100.00
65614;BME280;52283;49.292;10.572;2023-04-08T10:18:52;96939.06;;;5.80;100.00
65614;BME280;52283;49.292;10.572;2023-04-08T10:21:34;96930.75;;;5.80;100.00
65614;BME280;52283;49.292;10.572;2023-04-08T10:24:01;96934.16;;;5.75;100.00
65614;BME280;52283;49.292;10.572;2023-04-08T10:26:35;96933.53;;;5.80;100.00
65614;BME280;52283;49.292;10.572;2023-04-08T10:32:26;96928.16;;;5.86;100.00
65614;BME280;52283;49.292;10.572;2023-04-08T10:34:53;96932.44;;;5.78;100.00
65614;BME280;52283;49.292;10.572;2023-04-08T10:37:20;96934.00;;;5.70;100.00
65614;BME280;52283;49.292;10.572;2023-04-08T10:39:50;96930.94;;;5.86;100.00
65614;BME280;52283;49.292;10.572;2023-04-08T10:42:19;96939.38;;;5.82;100.00
65614;BME280;52283;49.292;10.572;2023-04-08T10:44:45;96941.13;;;5.89;100.00
65614;BME280;52283;49.292;10.572;2023-04-08T10:47:13;96938.53;;;6.04;100.00
65614;BME280;52283;49.292;10.572;2023-04-08T10:49:39;96928.66;;;6.03;100.00
65614;BME280;52283;49.292;10.572;2023-04-08T10:52:07;96931.28;;;5.97;100.00
65614;BME280;52283;49.292;10.572;2023-04-08T10:54:34;96932.75;;;5.71;100.00
65614;BME280;52283;49.292;10.572;2023-04-08T10:57:01;96937.91;;;5.91;100.00
65614;BME280;52283;49.292;10.572;2023-04-08T10:59:29;96939.53;;;5.70;100.00
65614;BME280;52283;49.292;10.572;2023-04-08T11:01:56;96936.63;;;5.73;100.00
65614;BME280;52283;49.292;10.572;2023-04-08T11:04:25;96937.84;;;5.72;100.00
65614;BME280;52283;49.292;10.572;2023-04-08T11:06:52;96937.19;;;5.50;100.00
65614;BME280;52283;49.292;10.572;2023-04-08T11:09:18;96941.84;;;5.62;100.00
65614;BME280;52283;49.292;10.572;2023-04-08T11:11:45;96940.94;;;5.74;100.00
65614;BME280;52283;49.292;10.572;2023-04-08T11:14:12;96934.16;;;5.66;100.00
65614;BME280;52283;49.292;10.572;2023-04-08T11:16:39;96943.34;;;5.54;100.00
65614;BME280;52283;49.292;10.572;2023-04-08T11:19:06;96935.53;;;5.71;100.00
65614;BME280;52283;49.292;10.572;2023-04-08T11:21:35;96936.47;;;5.68;100.00
65614;BME280;52283;49.292;10.572;2023-04-08T11:24:06;96948.28;;;5.59;100.00
65614;BME280;52283;49.292;10.572;2023-04-08T11:26:36;96944.06;;;5.36;100.00
65614;BME280;52283;49.292;10.572;2023-04-08T11:29:03;96936.34;;;5.31;100.00
65614;BME280;52283;49.292;10.572;2023-04-08T11:31:31;96938.25;;;5.53;100.00
65614;BME280;52283;49.292;10.572;2023-04-08T11:33:57;96939.28;;;5.28;100.00
65614;BME280;52283;49.292;10.572;2023-04-08T11:36:24;96945.66;;;5.46;100.00
65614;BME280;52283;49.292;10.572;2023-04-08T11:38:53;96938.59;;;5.64;100.00
65614;BME280;52283;49.292;10.572;2023-04-08T11:41:20;96925.53;;;5.82;100.00
65614;BME280;52283;49.292;10.572;2023-04-08T11:43:51;96928.81;;;5.99;100.00
65614;BME280;52283;49.292;10.572;2023-04-08T11:46:17;96921.44;;;6.05;100.00
65614;BME280;52283;49.292;10.572;2023-04-08T11:48:56;96926.22;;;6.05;100.00
65614;BME280;52283;49.292;10.572;2023-04-08T11:51:23;96935.91;;;6.19;100.00
65614;BME280;52283;49.292;10.572;2023-04-08T11:53:49;96935.16;;;6.46;100.00
65614;BME280;52283;49.292;10.572;2023-04-08T11:56:18;96934.63;;;6.65;100.00
65614;BME280;52283;49.292;10.572;2023-04-08T11:58:45;96937.78;;;6.31;100.00
65614;BME280;52283;49.292;10.572;2023-04-08T12:01:12;96946.09;;;6.49;100.00
65614;BME280;52283;49.292;10.572;2023-04-08T12:03:41;96945.00;;;6.56;100.00
65614;BME280;52283;49.292;10.572;2023-04-08T12:06:18;96938.66;;;6.55;100.00
65614;BME280;52283;49.292;10.572;2023-04-08T12:08:44;96934.03;;;6.52;100.00
65614;BME280;52283;49.292;10.572;2023-04-08T12:11:11;96942.84;;;6.51;100.00
65614;BME280;52283;49.292;10.572;2023-04-08T12:13:41;96947.16;;;6.52;100.00
65614;BME280;52283;49.292;10.572;2023-04-08T12:16:07;96947.94;;;6.52;100.00
65614;BME280;52283;49.292;10.572;2023-04-08T12:18:34;96946.53;;;6.38;100.00
65614;BME280;52283;49.292;10.572;2023-04-08T12:21:00;96944.69;;;6.54;100.00
65614;BME280;52283;49.292;10.572;2023-04-08T12:23:27;96942.84;;;6.32;100.00
65614;BME280;52283;49.292;10.572;2023-04-08T12:25:53;96949.63;;;6.31;100.00
65614;BME280;52283;49.292;10.572;2023-04-08T12:28:20;96950.56;;;6.28;100.00
65614;BME280;52283;49.292;10.572;2023-04-08T12:30:48;96947.19;;;6.06;100.00
65614;BME280;52283;49.292;10.572;2023-04-08T12:33:14;96958.41;;;6.02;100.00
65614;BME280;52283;49.292;10.572;2023-04-08T12:35:41;96954.09;;;6.20;100.00
65614;BME280;52283;49.292;10.572;2023-04-08T12:38:07;96953.81;;;6.27;100.00
65614;BME280;52283;49.292;10.572;2023-04-08T12:40:34;96959.19;;;6.49;100.00
65614;BME280;52283;49.292;10.572;2023-04-08T12:43:00;96964.41;;;6.65;100.00
65614;BME280;52283;49.292;10.572;2023-04-08T12:45:27;96965.22;;;6.29;100.00
65614;BME280;52283;49.292;10.572;2023-04-08T12:47:55;96963.63;;;6.64;100.00
65614;BME280;52283;49.292;10.572;2023-04-08T12:50:21;96963.50;;;6.50;100.00
65614;BME280;52283;49.292;10.572;2023-04-08T12:52:48;96955.16;;;6.59;100.00
65614;BME280;52283;49.292;10.572;2023-04-08T12:55:14;96955.09;;;6.86;100.00